createdAt,value
2023-11-24T00:01:02.338Z,94.30
2023-11-24T00:03:29.413Z,94.10
2023-11-24T00:05:57.620Z,94.20
2023-11-24T00:08:24.847Z,94.20
2023-11-24T00:10:52.047Z,94.20
2023-11-24T00:13:19.596Z,94.20
2023-11-24T00:15:48.324Z,94.10
2023-11-24T00:18:15.612Z,94.10
2023-11-24T00:20:42.614Z,94.20
2023-11-24T00:23:09.580Z,94.10
2023-11-24T00:25:36.920Z,94.20
2023-11-24T00:28:05.425Z,94.20
2023-11-24T00:30:33.706Z,94.20
2023-11-24T00:33:03.782Z,94.20
2023-11-24T00:35:32.431Z,94.20
2023-11-24T00:37:59.470Z,94.30
2023-11-24T00:40:26.416Z,94.30
2023-11-24T00:42:53.467Z,94.20
2023-11-24T00:45:20.547Z,94.20
2023-11-24T00:47:48.122Z,94.20
2023-11-24T00:50:15.410Z,94.30
2023-11-24T00:52:42.497Z,94.40
2023-11-24T00:55:09.611Z,94.40
2023-11-24T00:57:37.556Z,94.40
2023-11-24T01:00:08.243Z,94.40
2023-11-24T01:02:38.062Z,94.30
2023-11-24T01:05:06.331Z,94.40
2023-11-24T01:07:33.318Z,94.40
2023-11-24T01:10:00.651Z,94.40
2023-11-24T01:12:27.981Z,94.40
2023-11-24T01:14:56.864Z,94.50
2023-11-24T01:17:23.972Z,94.50
2023-11-24T01:19:50.980Z,94.50
2023-11-24T01:22:18.006Z,94.50
2023-11-24T01:24:46.078Z,94.50
2023-11-24T01:27:13.691Z,94.40
2023-11-24T01:29:40.770Z,94.20
2023-11-24T01:32:07.834Z,94.10
2023-11-24T01:34:34.971Z,94.20
2023-11-24T01:37:02.083Z,94.30
2023-11-24T01:39:29.130Z,94.40
2023-11-24T01:41:58.170Z,94.50
2023-11-24T01:44:25.228Z,94.50
2023-11-24T01:46:52.323Z,94.50
2023-11-24T01:49:19.292Z,94.50
2023-11-24T01:51:46.358Z,94.50
2023-11-24T01:54:14.244Z,94.50
2023-11-24T01:56:42.563Z,94.40
2023-11-24T01:59:10.882Z,94.40
2023-11-24T02:01:38.784Z,94.50
2023-11-24T02:04:05.907Z,94.60
2023-11-24T02:06:33.738Z,94.60
2023-11-24T02:09:00.725Z,94.70
2023-11-24T02:11:28.036Z,94.70
2023-11-24T02:13:55.676Z,94.60
2023-11-24T02:16:23.249Z,94.60
2023-11-24T02:18:50.184Z,94.60
2023-11-24T02:21:18.715Z,94.70
2023-11-24T02:23:45.846Z,94.70
2023-11-24T02:26:12.815Z,94.70
2023-11-24T02:28:39.804Z,94.70
2023-11-24T02:31:09.099Z,94.60
2023-11-24T02:33:36.337Z,94.50
2023-11-24T02:36:09.968Z,94.50
2023-11-24T02:38:37.357Z,94.60
2023-11-24T02:41:06.679Z,94.60
2023-11-24T02:43:33.633Z,94.60
2023-11-24T02:46:01.432Z,94.60
2023-11-24T02:48:28.569Z,94.60
2023-11-24T02:50:55.523Z,94.60
2023-11-24T02:53:22.461Z,94.70
2023-11-24T02:55:49.494Z,94.70
2023-11-24T02:58:16.632Z,94.70
2023-11-24T03:00:43.754Z,94.80
2023-11-24T03:03:10.713Z,94.80
2023-11-24T03:05:37.628Z,94.70
2023-11-24T03:08:04.714Z,94.70
2023-11-24T03:10:31.684Z,94.60
2023-11-24T03:12:58.749Z,94.60
2023-11-24T03:15:26.363Z,94.70
2023-11-24T03:17:53.341Z,94.70
2023-11-24T03:20:22.386Z,94.70
2023-11-24T03:22:49.433Z,94.70
2023-11-24T03:25:16.934Z,94.60
2023-11-24T03:27:44.012Z,94.50
2023-11-24T03:30:11.750Z,94.50
2023-11-24T03:32:39.164Z,94.60
2023-11-24T03:35:08.401Z,94.50
2023-11-24T03:37:35.451Z,94.50
2023-11-24T03:40:02.548Z,94.60
2023-11-24T03:42:29.635Z,94.50
2023-11-24T03:44:56.587Z,94.50
2023-11-24T03:47:24.588Z,94.60
2023-11-24T03:49:51.545Z,94.60
2023-11-24T03:52:19.110Z,94.70
2023-11-24T03:54:46.179Z,94.60
2023-11-24T03:57:13.422Z,94.60
2023-11-24T03:59:40.488Z,94.60
2023-11-24T04:02:07.696Z,94.60
2023-11-24T04:04:34.760Z,94.70
2023-11-24T04:07:01.707Z,94.50
2023-11-24T04:09:28.864Z,94.50
2023-11-24T04:11:56.002Z,94.50
2023-11-24T04:14:23.366Z,94.50
2023-11-24T04:16:50.426Z,94.50
2023-11-24T04:19:17.564Z,94.40
2023-11-24T04:21:44.589Z,94.30
2023-11-24T04:24:11.866Z,94.40
2023-11-24T04:26:38.986Z,94.40
2023-11-24T04:29:06.094Z,94.40
2023-11-24T04:31:33.033Z,94.40
2023-11-24T04:34:01.469Z,94.40
2023-11-24T04:36:29.547Z,94.40
2023-11-24T04:38:56.588Z,94.30
2023-11-24T04:41:23.565Z,94.40
2023-11-24T04:43:50.454Z,94.40
2023-11-24T04:46:17.443Z,94.40
2023-11-24T04:48:44.569Z,94.40
2023-11-24T04:51:11.607Z,94.50
2023-11-24T04:53:41.323Z,94.50
2023-11-24T04:56:09.467Z,94.50
2023-11-24T04:58:36.489Z,94.50
2023-11-24T05:01:04.079Z,94.40
2023-11-24T05:03:32.580Z,94.40
2023-11-24T05:05:59.651Z,94.40
2023-11-24T05:08:26.555Z,94.40
2023-11-24T05:10:53.562Z,94.50
2023-11-24T05:13:20.510Z,94.40
2023-11-24T05:15:47.784Z,94.30
2023-11-24T05:18:14.859Z,94.30
2023-11-24T05:20:41.749Z,94.30
2023-11-24T05:23:08.827Z,94.20
2023-11-24T05:25:35.734Z,94.30
2023-11-24T05:28:02.718Z,94.40
2023-11-24T05:30:29.816Z,94.40
2023-11-24T05:32:56.820Z,94.50
2023-11-24T05:35:23.831Z,94.40
2023-11-24T05:37:50.771Z,94.30
2023-11-24T05:40:17.845Z,94.40
2023-11-24T05:42:45.285Z,94.40
2023-11-24T05:45:13.713Z,94.50
2023-11-24T05:47:40.805Z,94.50
2023-11-24T05:50:08.462Z,94.50
2023-11-24T05:52:35.884Z,94.50
2023-11-24T05:55:03.221Z,94.50
2023-11-24T05:57:30.675Z,94.40
2023-11-24T05:59:59.751Z,94.50
2023-11-24T06:02:27.184Z,94.60
2023-11-24T06:04:54.516Z,94.70
2023-11-24T06:07:21.660Z,95.00
2023-11-24T06:09:48.572Z,94.70
2023-11-24T06:12:15.478Z,94.70
2023-11-24T06:14:42.487Z,94.70
2023-11-24T06:17:10.030Z,94.60
2023-11-24T06:19:36.993Z,94.50
2023-11-24T06:22:04.245Z,94.50
2023-11-24T06:24:31.265Z,94.60
2023-11-24T06:26:58.318Z,94.70
2023-11-24T06:29:26.154Z,94.70
2023-11-24T06:31:53.241Z,94.70
2023-11-24T06:34:20.347Z,94.70
2023-11-24T06:36:47.386Z,94.70
2023-11-24T06:39:14.522Z,94.70
2023-11-24T06:41:43.175Z,94.80
2023-11-24T06:44:10.130Z,94.70
2023-11-24T06:46:37.524Z,94.80
2023-11-24T06:49:06.975Z,94.80
2023-11-24T06:51:34.036Z,94.80
2023-11-24T06:54:01.053Z,94.90
2023-11-24T06:56:30.631Z,95.00
2023-11-24T06:58:57.913Z,95.00
2023-11-24T07:01:36.343Z,94.70
2023-11-24T07:04:04.386Z,94.50
2023-11-24T07:06:31.678Z,94.40
2023-11-24T07:09:00.024Z,94.40
2023-11-24T07:11:27.162Z,94.50
2023-11-24T07:13:54.055Z,94.60
2023-11-24T07:16:21.276Z,94.60
2023-11-24T07:18:48.391Z,94.50
2023-11-24T07:21:16.904Z,94.50
2023-11-24T07:23:43.776Z,94.50
2023-11-24T07:26:15.859Z,94.50
2023-11-24T07:28:45.260Z,94.50
2023-11-24T07:31:16.306Z,94.40
2023-11-24T07:33:43.518Z,94.40
2023-11-24T07:36:10.512Z,94.50
2023-11-24T07:38:37.942Z,94.50
2023-11-24T07:41:06.122Z,94.50
2023-11-24T07:43:33.107Z,94.60
2023-11-24T07:46:00.205Z,94.50
2023-11-24T07:48:27.719Z,94.40
2023-11-24T07:50:54.675Z,94.30
2023-11-24T07:53:22.004Z,94.20
2023-11-24T07:55:50.439Z,94.20
2023-11-24T07:58:17.590Z,94.30
2023-11-24T08:00:45.531Z,94.30
2023-11-24T08:03:14.173Z,94.30
2023-11-24T08:05:41.737Z,94.30
2023-11-24T08:08:09.285Z,94.30
2023-11-24T08:10:36.233Z,94.70
2023-11-24T08:13:03.675Z,94.40
2023-11-24T08:15:30.749Z,94.40
2023-11-24T08:17:58.462Z,94.40
2023-11-24T08:20:25.461Z,94.50
2023-11-24T08:22:52.379Z,94.50
2023-11-24T08:25:19.804Z,94.40
2023-11-24T08:27:48.139Z,94.40
2023-11-24T08:30:15.388Z,94.30
2023-11-24T08:32:45.674Z,94.20
2023-11-24T08:35:14.045Z,94.10
2023-11-24T08:37:41.060Z,93.90
2023-11-24T08:40:12.532Z,93.80
2023-11-24T08:42:40.098Z,93.70
2023-11-24T08:45:08.182Z,93.60
2023-11-24T08:47:35.303Z,93.50
2023-11-24T08:50:02.808Z,93.30
2023-11-24T08:52:29.788Z,93.20
2023-11-24T08:54:56.719Z,93.00
2023-11-24T08:57:23.734Z,92.90
2023-11-24T08:59:50.712Z,92.70
2023-11-24T09:02:17.715Z,92.40
2023-11-24T09:04:46.045Z,92.20
2023-11-24T09:07:13.695Z,92.00
2023-11-24T09:09:42.425Z,91.80
2023-11-24T09:12:09.533Z,91.70
2023-11-24T09:14:39.742Z,91.90
2023-11-24T09:17:10.708Z,91.50
2023-11-24T09:19:37.868Z,91.40
2023-11-24T09:22:07.230Z,91.30
2023-11-24T09:24:35.129Z,91.10
2023-11-24T09:27:02.128Z,91.00
2023-11-24T09:29:29.139Z,90.90
2023-11-24T09:31:59.324Z,90.90
2023-11-24T09:34:27.817Z,90.80
2023-11-24T09:36:55.513Z,90.80
2023-11-24T09:39:26.888Z,90.70
2023-11-24T09:41:55.125Z,90.70
2023-11-24T09:44:22.636Z,90.50
2023-11-24T09:46:52.750Z,90.40
2023-11-24T09:49:23.370Z,90.30
2023-11-24T09:51:50.676Z,90.20
2023-11-24T09:54:19.128Z,90.20
2023-11-24T09:56:46.432Z,90.10
2023-11-24T09:59:15.059Z,89.80
2023-11-24T10:01:42.494Z,89.40
2023-11-24T10:04:11.232Z,89.20
2023-11-24T10:06:40.439Z,89.00
2023-11-24T10:09:07.912Z,88.60
2023-11-24T10:11:36.937Z,88.30
2023-11-24T10:14:07.194Z,88.20
2023-11-24T10:16:34.611Z,88.00
2023-11-24T10:19:04.678Z,87.70
2023-11-24T10:21:33.238Z,87.50
2023-11-24T10:24:02.454Z,87.30
2023-11-24T10:26:29.754Z,86.70
2023-11-24T10:28:58.574Z,86.40
2023-11-24T10:31:25.966Z,86.00
2023-11-24T10:33:53.303Z,85.70
2023-11-24T10:36:26.292Z,85.20
2023-11-24T10:39:04.409Z,84.80
2023-11-24T10:41:36.254Z,85.00
2023-11-24T10:44:05.131Z,84.70
2023-11-24T10:46:36.469Z,84.70
2023-11-24T10:49:18.020Z,84.50
2023-11-24T10:51:54.057Z,83.90
2023-11-24T10:54:27.008Z,84.00
2023-11-24T10:56:58.871Z,83.40
2023-11-24T10:59:29.462Z,82.90
2023-11-24T11:01:59.058Z,82.60
2023-11-24T11:04:28.499Z,82.90
2023-11-24T11:07:09.697Z,81.90
2023-11-24T11:09:49.628Z,82.00
2023-11-24T11:12:30.884Z,81.60
2023-11-24T11:14:59.009Z,81.70
2023-11-24T11:17:28.922Z,81.30
2023-11-24T11:19:59.995Z,81.30
2023-11-24T11:22:34.044Z,81.40
2023-11-24T11:25:28.248Z,81.20
2023-11-24T11:27:58.304Z,80.60
2023-11-24T11:30:27.969Z,80.10
2023-11-24T11:33:05.201Z,80.40
2023-11-24T11:35:36.382Z,80.60
2023-11-24T11:38:04.606Z,80.60
2023-11-24T11:40:36.845Z,80.40
2023-11-24T11:43:11.176Z,79.70
2023-11-24T11:45:49.123Z,79.40
2023-11-24T11:48:16.727Z,79.00
2023-11-24T11:51:00.163Z,79.60
2023-11-24T11:53:30.398Z,79.00
2023-11-24T11:55:59.533Z,78.90
2023-11-24T11:58:28.684Z,78.10
2023-11-24T12:00:56.337Z,77.60
2023-11-24T12:03:26.603Z,77.20
2023-11-24T12:05:53.651Z,76.30
2023-11-24T12:08:23.466Z,76.30
2023-11-24T12:10:50.850Z,76.70
2023-11-24T12:13:17.995Z,75.80
2023-11-24T12:15:45.279Z,75.20
2023-11-24T12:18:16.123Z,75.40
2023-11-24T12:20:45.378Z,75.80
2023-11-24T12:23:14.673Z,75.70
2023-11-24T12:25:42.868Z,75.50
2023-11-24T12:28:11.863Z,75.40
2023-11-24T12:30:45.648Z,75.50
2023-11-24T12:33:15.795Z,74.90
2023-11-24T12:35:49.813Z,74.70
2023-11-24T12:38:17.090Z,74.50
2023-11-24T12:40:44.854Z,75.00
2023-11-24T12:43:19.764Z,73.50
2023-11-24T12:45:52.455Z,73.40
2023-11-24T12:48:20.533Z,74.10
2023-11-24T12:50:48.811Z,74.70
2023-11-24T12:53:16.681Z,74.80
2023-11-24T12:55:44.255Z,74.90
2023-11-24T12:58:12.220Z,75.10
2023-11-24T13:00:39.333Z,75.30
2023-11-24T13:03:06.655Z,74.90
2023-11-24T13:05:37.340Z,75.50
2023-11-24T13:08:04.611Z,75.50
2023-11-24T13:10:32.770Z,75.50
2023-11-24T13:13:00.882Z,75.80
2023-11-24T13:15:29.290Z,76.00
2023-11-24T13:17:59.679Z,76.00
2023-11-24T13:20:30.093Z,75.70
2023-11-24T13:22:57.709Z,75.70
2023-11-24T13:25:28.147Z,75.90
2023-11-24T13:27:55.636Z,76.70
2023-11-24T13:30:23.328Z,75.20
2023-11-24T13:32:50.957Z,74.80
2023-11-24T13:35:20.734Z,74.90
2023-11-24T13:37:49.325Z,75.30
2023-11-24T13:40:20.654Z,75.40
2023-11-24T13:42:48.240Z,75.10
2023-11-24T13:45:17.976Z,74.80
2023-11-24T13:47:46.030Z,75.00
2023-11-24T13:50:15.270Z,75.20
2023-11-24T13:52:44.023Z,75.40
2023-11-24T13:55:12.771Z,75.90
2023-11-24T13:57:40.310Z,76.00
2023-11-24T14:00:11.934Z,76.20
2023-11-24T14:02:39.288Z,76.40
2023-11-24T14:05:06.801Z,75.80
2023-11-24T14:07:33.656Z,75.80
2023-11-24T14:10:00.592Z,75.70
2023-11-24T14:12:27.967Z,75.70
2023-11-24T14:14:55.013Z,75.90
2023-11-24T14:17:23.966Z,76.30
2023-11-24T14:19:50.913Z,76.80
2023-11-24T14:22:22.173Z,77.50
2023-11-24T14:24:49.370Z,77.80
2023-11-24T14:27:16.377Z,78.10
2023-11-24T14:29:44.128Z,78.20
2023-11-24T14:32:11.859Z,78.20
2023-11-24T14:34:39.579Z,78.40
2023-11-24T14:37:07.632Z,78.80
2023-11-24T14:39:44.554Z,79.40
2023-11-24T14:42:12.630Z,79.70
2023-11-24T14:44:40.595Z,80.40
2023-11-24T14:47:10.943Z,80.60
2023-11-24T14:49:37.939Z,80.90
2023-11-24T14:52:08.827Z,81.30
2023-11-24T14:54:35.878Z,82.20
2023-11-24T14:57:02.875Z,82.60
2023-11-24T14:59:30.793Z,83.20
2023-11-24T15:02:08.964Z,83.30
2023-11-24T15:04:36.078Z,83.50
2023-11-24T15:07:05.742Z,83.60
2023-11-24T15:09:32.799Z,84.00
2023-11-24T15:11:59.718Z,84.20
2023-11-24T15:14:47.809Z,84.70
2023-11-24T15:17:17.983Z,84.90
2023-11-24T15:19:47.817Z,85.30
2023-11-24T15:22:20.256Z,85.80
2023-11-24T15:24:50.718Z,86.20
2023-11-24T15:27:18.300Z,86.60
2023-11-24T15:29:46.457Z,86.90
2023-11-24T15:32:21.056Z,87.10
2023-11-24T15:34:48.049Z,87.40
2023-11-24T15:37:15.057Z,87.50
2023-11-24T15:39:43.202Z,87.70
2023-11-24T15:42:11.023Z,87.90
2023-11-24T15:44:39.283Z,88.20
2023-11-24T15:47:11.216Z,88.50
2023-11-24T15:49:42.190Z,88.80
2023-11-24T15:52:10.254Z,89.10
2023-11-24T15:54:38.049Z,89.60
2023-11-24T15:57:05.291Z,89.80
2023-11-24T15:59:35.320Z,90.10
2023-11-24T16:02:04.555Z,90.30
2023-11-24T16:04:35.839Z,90.40
2023-11-24T16:07:08.404Z,90.50
2023-11-24T16:09:38.686Z,90.70
2023-11-24T16:12:14.076Z,90.70
2023-11-24T16:14:41.660Z,90.70
2023-11-24T16:17:09.809Z,90.90
2023-11-24T16:19:37.202Z,91.00
2023-11-24T16:22:04.574Z,91.10
2023-11-24T16:24:32.659Z,91.20
2023-11-24T16:27:00.260Z,91.20
2023-11-24T16:29:27.559Z,91.30
2023-11-24T16:31:56.083Z,91.30
2023-11-24T16:34:26.884Z,91.40
2023-11-24T16:36:57.655Z,91.50
2023-11-24T16:39:28.479Z,91.60
2023-11-24T16:41:56.206Z,91.70
2023-11-24T16:44:23.949Z,91.70
2023-11-24T16:46:59.178Z,91.70
2023-11-24T16:49:26.862Z,91.90
2023-11-24T16:51:54.176Z,91.90
2023-11-24T16:54:21.346Z,91.80
2023-11-24T16:56:48.391Z,91.80
2023-11-24T16:59:19.402Z,92.00
2023-11-24T17:01:46.398Z,92.20
2023-11-24T17:04:13.850Z,92.30
2023-11-24T17:06:41.032Z,92.50
2023-11-24T17:09:12.788Z,92.60
2023-11-24T17:11:43.830Z,92.80
2023-11-24T17:14:11.436Z,92.90
2023-11-24T17:16:38.428Z,92.90
2023-11-24T17:19:05.605Z,93.00
2023-11-24T17:21:33.106Z,93.00
2023-11-24T17:23:59.999Z,93.00
2023-11-24T17:26:28.927Z,93.00
2023-11-24T17:28:57.731Z,93.00
2023-11-24T17:31:25.617Z,93.10
2023-11-24T17:33:53.476Z,93.00
2023-11-24T17:36:21.500Z,93.00
2023-11-24T17:38:49.790Z,92.90
2023-11-24T17:41:17.327Z,93.00
2023-11-24T17:43:44.494Z,93.00
2023-11-24T17:46:12.835Z,93.10
2023-11-24T17:48:42.215Z,93.10
2023-11-24T17:51:09.109Z,93.20
2023-11-24T17:53:37.024Z,93.30
2023-11-24T17:56:04.506Z,93.40
2023-11-24T17:58:31.987Z,93.40
2023-11-24T18:00:59.256Z,93.40
2023-11-24T18:03:26.487Z,93.70
2023-11-24T18:05:54.224Z,93.50
2023-11-24T18:08:23.535Z,93.50
2023-11-24T18:10:51.090Z,93.70
2023-11-24T18:13:18.517Z,93.70
2023-11-24T18:15:45.529Z,93.70
2023-11-24T18:18:13.057Z,93.60
2023-11-24T18:20:41.276Z,93.60
2023-11-24T18:23:08.505Z,93.80
2023-11-24T18:25:39.718Z,93.50
2023-11-24T18:28:12.616Z,93.60
2023-11-24T18:30:39.778Z,93.60
2023-11-24T18:33:09.626Z,93.60
2023-11-24T18:35:40.244Z,93.70
2023-11-24T18:38:07.909Z,93.60
2023-11-24T18:40:35.050Z,93.60
2023-11-24T18:43:02.157Z,93.60
2023-11-24T18:45:29.121Z,93.70
2023-11-24T18:47:56.107Z,93.60
2023-11-24T18:50:23.476Z,93.60
2023-11-24T18:52:50.530Z,93.60
2023-11-24T18:55:18.354Z,93.60
2023-11-24T18:57:47.787Z,93.70
2023-11-24T19:00:19.661Z,93.70
2023-11-24T19:02:48.665Z,93.60
2023-11-24T19:05:15.827Z,93.60
2023-11-24T19:07:43.476Z,93.70
2023-11-24T19:10:16.283Z,93.70
2023-11-24T19:12:43.263Z,93.70
2023-11-24T19:15:11.620Z,93.80
2023-11-24T19:17:39.998Z,93.80
2023-11-24T19:20:08.710Z,93.90
2023-11-24T19:22:36.542Z,93.90
2023-11-24T19:25:03.940Z,93.90
2023-11-24T19:27:30.868Z,93.90
2023-11-24T19:29:57.954Z,93.90
2023-11-24T19:32:25.923Z,94.00
2023-11-24T19:34:54.030Z,94.00
2023-11-24T19:37:21.027Z,94.00
2023-11-24T19:39:49.380Z,94.00
2023-11-24T19:42:19.159Z,94.00
2023-11-24T19:44:48.039Z,94.00
2023-11-24T19:47:15.088Z,94.10
2023-11-24T19:49:42.889Z,94.10
2023-11-24T19:52:10.864Z,94.10
2023-11-24T19:54:38.927Z,94.10
2023-11-24T19:57:06.093Z,94.10
2023-11-24T19:59:33.065Z,94.10
2023-11-24T20:02:00.359Z,94.10
2023-11-24T20:04:28.789Z,94.10
2023-11-24T20:06:55.865Z,94.00
2023-11-24T20:09:23.731Z,94.00
2023-11-24T20:11:52.610Z,94.10
2023-11-24T20:14:19.691Z,94.10
2023-11-24T20:16:48.729Z,94.20
2023-11-24T20:19:16.106Z,94.30
2023-11-24T20:21:43.332Z,94.30
2023-11-24T20:24:13.106Z,94.40
2023-11-24T20:26:41.287Z,94.40
2023-11-24T20:29:08.858Z,94.50
2023-11-24T20:31:36.297Z,94.50
2023-11-24T20:34:03.371Z,94.50
2023-11-24T20:36:30.468Z,94.50
2023-11-24T20:39:00.223Z,94.40
2023-11-24T20:41:27.199Z,94.40
2023-11-24T20:43:55.180Z,94.40
2023-11-24T20:46:22.431Z,94.50
2023-11-24T20:48:49.463Z,94.50
2023-11-24T20:51:16.810Z,94.60
2023-11-24T20:53:43.764Z,94.60
2023-11-24T20:56:11.793Z,94.60
2023-11-24T20:58:39.426Z,94.60
2023-11-24T21:01:06.817Z,94.50
2023-11-24T21:03:34.069Z,94.40
2023-11-24T21:06:00.986Z,94.40
2023-11-24T21:08:28.318Z,94.50
2023-11-24T21:10:55.390Z,94.60
2023-11-24T21:13:23.525Z,94.70
2023-11-24T21:15:50.844Z,94.70
2023-11-24T21:18:17.960Z,94.80
2023-11-24T21:20:45.125Z,94.80
2023-11-24T21:23:13.167Z,94.80
2023-11-24T21:25:40.430Z,94.80
2023-11-24T21:28:09.020Z,94.80
2023-11-24T21:30:35.941Z,94.90
2023-11-24T21:33:03.038Z,94.80
2023-11-24T21:35:32.089Z,94.50
2023-11-24T21:37:59.263Z,94.60
2023-11-24T21:40:26.395Z,94.60
2023-11-24T21:42:53.379Z,94.70
2023-11-24T21:45:20.326Z,94.80
2023-11-24T21:47:47.387Z,94.80
2023-11-24T21:50:14.929Z,94.80
2023-11-24T21:52:42.387Z,94.70
2023-11-24T21:55:10.837Z,94.70
2023-11-24T21:57:38.003Z,94.70
2023-11-24T22:00:09.547Z,94.70
2023-11-24T22:02:40.719Z,94.80
2023-11-24T22:05:10.526Z,94.80
2023-11-24T22:07:38.456Z,94.70
2023-11-24T22:10:06.784Z,94.60
2023-11-24T22:12:38.062Z,94.60
2023-11-24T22:15:08.636Z,94.60
2023-11-24T22:17:35.851Z,94.60
2023-11-24T22:20:22.301Z,94.60
2023-11-24T22:22:50.077Z,94.60
2023-11-24T22:25:18.316Z,94.50
2023-11-24T22:27:45.371Z,94.60
2023-11-24T22:30:13.607Z,94.70
2023-11-24T22:32:40.865Z,94.70
2023-11-24T22:35:08.321Z,94.70
2023-11-24T22:37:35.658Z,94.70
2023-11-24T22:40:05.464Z,94.70
2023-11-24T22:42:32.347Z,94.70
2023-11-24T22:45:00.264Z,94.70
2023-11-24T22:47:27.300Z,94.80
2023-11-24T22:49:54.985Z,95.00
2023-11-24T22:52:21.936Z,95.10
2023-11-24T22:54:49.070Z,95.40
2023-11-24T22:57:16.370Z,95.20
2023-11-24T22:59:45.016Z,95.30
2023-11-24T23:02:13.378Z,95.30
2023-11-24T23:04:40.468Z,95.40
2023-11-24T23:07:07.529Z,95.40
2023-11-24T23:09:34.518Z,95.40
2023-11-24T23:12:01.466Z,95.40
2023-11-24T23:14:32.899Z,95.50
2023-11-24T23:17:01.468Z,95.50
2023-11-24T23:19:28.693Z,95.60
2023-11-24T23:21:55.662Z,95.80
2023-11-24T23:24:22.600Z,95.90
2023-11-24T23:26:49.569Z,96.00
2023-11-24T23:29:16.520Z,96.00
2023-11-24T23:31:44.833Z,96.20
2023-11-24T23:34:12.605Z,96.20
2023-11-24T23:36:39.604Z,96.30
2023-11-24T23:39:08.483Z,96.30
2023-11-24T23:41:35.489Z,96.40
2023-11-24T23:44:02.447Z,96.40
2023-11-24T23:46:29.558Z,96.40
2023-11-24T23:48:56.553Z,96.40
2023-11-24T23:51:23.477Z,96.40
2023-11-24T23:53:50.392Z,96.40
2023-11-24T23:56:17.257Z,96.40
2023-11-24T23:58:45.145Z,96.30
